sensor_id;sensor_type;location;lat;lon;timestamp;P1;durP1;ratioP1;P2;durP2;ratioP2
45059;SDS011;30799;49.060;9.312;2022-12-07T00:01:37;5.20;;;3.75;;
45059;SDS011;30799;49.060;9.312;2022-12-07T00:04:05;4.53;;;3.83;;
45059;SDS011;30799;49.060;9.312;2022-12-07T00:06:33;5.45;;;4.05;;
45059;SDS011;30799;49.060;9.312;2022-12-07T00:09:02;4.50;;;3.75;;
45059;SDS011;30799;49.060;9.312;2022-12-07T00:11:33;5.50;;;3.95;;
45059;SDS011;30799;49.060;9.312;2022-12-07T00:14:04;4.72;;;3.60;;
45059;SDS011;30799;49.060;9.312;2022-12-07T00:16:33;3.97;;;3.50;;
45059;SDS011;30799;49.060;9.312;2022-12-07T00:19:01;5.57;;;4.00;;
45059;SDS011;30799;49.060;9.312;2022-12-07T00:21:30;4.88;;;3.70;;
45059;SDS011;30799;49.060;9.312;2022-12-07T00:23:58;5.28;;;3.45;;
45059;SDS011;30799;49.060;9.312;2022-12-07T00:26:29;4.15;;;3.70;;
45059;SDS011;30799;49.060;9.312;2022-12-07T00:29:01;3.80;;;3.35;;
45059;SDS011;30799;49.060;9.312;2022-12-07T00:31:34;4.47;;;3.70;;
45059;SDS011;30799;49.060;9.312;2022-12-07T00:34:05;4.07;;;3.60;;
45059;SDS011;30799;49.060;9.312;2022-12-07T00:36:40;4.20;;;3.60;;
45059;SDS011;30799;49.060;9.312;2022-12-07T00:39:07;3.25;;;2.95;;
45059;SDS011;30799;49.060;9.312;2022-12-07T00:41:34;4.10;;;3.50;;
45059;SDS011;30799;49.060;9.312;2022-12-07T00:44:01;4.13;;;3.72;;
45059;SDS011;30799;49.060;9.312;2022-12-07T00:46:28;4.10;;;3.65;;
45059;SDS011;30799;49.060;9.312;2022-12-07T00:48:55;3.75;;;3.28;;
45059;SDS011;30799;49.060;9.312;2022-12-07T00:51:23;5.43;;;3.50;;
45059;SDS011;30799;49.060;9.312;2022-12-07T00:53:50;3.97;;;3.33;;
45059;SDS011;30799;49.060;9.312;2022-12-07T00:56:26;4.00;;;3.60;;
45059;SDS011;30799;49.060;9.312;2022-12-07T00:58:59;4.13;;;3.47;;
45059;SDS011;30799;49.060;9.312;2022-12-07T01:01:28;3.70;;;3.35;;
45059;SDS011;30799;49.060;9.312;2022-12-07T01:03:57;3.70;;;3.28;;
45059;SDS011;30799;49.060;9.312;2022-12-07T01:06:24;4.03;;;3.30;;
45059;SDS011;30799;49.060;9.312;2022-12-07T01:08:51;3.30;;;3.00;;
45059;SDS011;30799;49.060;9.312;2022-12-07T01:11:20;3.65;;;3.25;;
45059;SDS011;30799;49.060;9.312;2022-12-07T01:13:49;3.45;;;3.15;;
45059;SDS011;30799;49.060;9.312;2022-12-07T01:16:17;4.28;;;3.50;;
45059;SDS011;30799;49.060;9.312;2022-12-07T01:18:48;3.50;;;3.20;;
45059;SDS011;30799;49.060;9.312;2022-12-07T01:21:17;3.45;;;3.15;;
45059;SDS011;30799;49.060;9.312;2022-12-07T01:23:52;3.35;;;3.03;;
45059;SDS011;30799;49.060;9.312;2022-12-07T01:26:20;4.22;;;3.40;;
45059;SDS011;30799;49.060;9.312;2022-12-07T01:28:48;3.33;;;3.03;;
45059;SDS011;30799;49.060;9.312;2022-12-07T01:31:17;3.92;;;3.53;;
45059;SDS011;30799;49.060;9.312;2022-12-07T01:33:46;3.97;;;3.58;;
45059;SDS011;30799;49.060;9.312;2022-12-07T01:36:18;3.50;;;2.80;;
45059;SDS011;30799;49.060;9.312;2022-12-07T01:38:47;3.97;;;3.58;;
45059;SDS011;30799;49.060;9.312;2022-12-07T01:41:17;4.05;;;3.20;;
45059;SDS011;30799;49.060;9.312;2022-12-07T01:46:36;3.80;;;3.17;;
45059;SDS011;30799;49.060;9.312;2022-12-07T01:49:06;3.10;;;2.80;;
45059;SDS011;30799;49.060;9.312;2022-12-07T01:51:36;3.97;;;3.15;;
45059;SDS011;30799;49.060;9.312;2022-12-07T01:54:06;3.17;;;2.80;;
45059;SDS011;30799;49.060;9.312;2022-12-07T01:56:33;3.63;;;3.28;;
45059;SDS011;30799;49.060;9.312;2022-12-07T01:59:00;3.72;;;2.95;;
45059;SDS011;30799;49.060;9.312;2022-12-07T02:01:27;3.40;;;2.80;;
45059;SDS011;30799;49.060;9.312;2022-12-07T02:03:54;3.17;;;2.70;;
45059;SDS011;30799;49.060;9.312;2022-12-07T02:06:22;3.15;;;2.60;;
45059;SDS011;30799;49.060;9.312;2022-12-07T02:08:51;3.30;;;2.70;;
45059;SDS011;30799;49.060;9.312;2022-12-07T02:11:19;3.08;;;2.70;;
45059;SDS011;30799;49.060;9.312;2022-12-07T02:13:46;2.60;;;2.40;;
45059;SDS011;30799;49.060;9.312;2022-12-07T02:18:56;3.47;;;3.00;;
45059;SDS011;30799;49.060;9.312;2022-12-07T02:21:57;3.95;;;3.08;;
45059;SDS011;30799;49.060;9.312;2022-12-07T02:24:52;3.70;;;2.90;;
45059;SDS011;30799;49.060;9.312;2022-12-07T02:27:37;3.38;;;3.00;;
45059;SDS011;30799;49.060;9.312;2022-12-07T02:30:19;3.55;;;2.80;;
45059;SDS011;30799;49.060;9.312;2022-12-07T02:35:33;3.20;;;2.90;;
45059;SDS011;30799;49.060;9.312;2022-12-07T02:41:06;3.40;;;2.67;;
45059;SDS011;30799;49.060;9.312;2022-12-07T02:43:50;3.20;;;2.90;;
45059;SDS011;30799;49.060;9.312;2022-12-07T02:46:21;3.72;;;2.92;;
45059;SDS011;30799;49.060;9.312;2022-12-07T02:48:59;2.72;;;2.53;;
45059;SDS011;30799;49.060;9.312;2022-12-07T02:51:29;2.90;;;2.70;;
45059;SDS011;30799;49.060;9.312;2022-12-07T02:53:58;2.97;;;2.70;;
45059;SDS011;30799;49.060;9.312;2022-12-07T02:56:27;2.85;;;2.65;;
45059;SDS011;30799;49.060;9.312;2022-12-07T03:10:14;2.80;;;2.60;;
45059;SDS011;30799;49.060;9.312;2022-12-07T03:15:43;2.80;;;2.58;;
45059;SDS011;30799;49.060;9.312;2022-12-07T03:18:16;2.70;;;2.38;;
45059;SDS011;30799;49.060;9.312;2022-12-07T03:20:46;2.67;;;2.47;;
45059;SDS011;30799;49.060;9.312;2022-12-07T03:23:17;2.67;;;2.47;;
45059;SDS011;30799;49.060;9.312;2022-12-07T03:25:46;3.05;;;2.65;;
45059;SDS011;30799;49.060;9.312;2022-12-07T03:28:22;2.38;;;2.17;;
45059;SDS011;30799;49.060;9.312;2022-12-07T03:30:54;3.10;;;2.80;;
45059;SDS011;30799;49.060;9.312;2022-12-07T03:33:31;2.60;;;2.40;;
45059;SDS011;30799;49.060;9.312;2022-12-07T03:36:24;2.42;;;2.22;;
45059;SDS011;30799;49.060;9.312;2022-12-07T03:39:12;2.90;;;2.65;;
45059;SDS011;30799;49.060;9.312;2022-12-07T03:41:48;2.88;;;2.50;;
45059;SDS011;30799;49.060;9.312;2022-12-07T03:44:15;2.63;;;2.33;;
45059;SDS011;30799;49.060;9.312;2022-12-07T03:52:23;2.60;;;2.40;;
45059;SDS011;30799;49.060;9.312;2022-12-07T03:54:56;2.50;;;2.30;;
45059;SDS011;30799;49.060;9.312;2022-12-07T03:57:31;2.67;;;2.40;;
45059;SDS011;30799;49.060;9.312;2022-12-07T04:00:00;2.95;;;2.25;;
45059;SDS011;30799;49.060;9.312;2022-12-07T04:02:29;2.72;;;2.50;;
45059;SDS011;30799;49.060;9.312;2022-12-07T04:04:56;2.92;;;2.55;;
45059;SDS011;30799;49.060;9.312;2022-12-07T04:07:23;2.70;;;2.47;;
45059;SDS011;30799;49.060;9.312;2022-12-07T04:09:50;2.65;;;2.38;;
45059;SDS011;30799;49.060;9.312;2022-12-07T04:12:17;2.38;;;2.17;;
45059;SDS011;30799;49.060;9.312;2022-12-07T04:14:43;3.05;;;2.60;;
45059;SDS011;30799;49.060;9.312;2022-12-07T04:17:10;2.30;;;2.10;;
45059;SDS011;30799;49.060;9.312;2022-12-07T04:19:37;2.53;;;2.33;;
45059;SDS011;30799;49.060;9.312;2022-12-07T04:22:04;3.00;;;2.70;;
45059;SDS011;30799;49.060;9.312;2022-12-07T04:24:32;2.70;;;2.40;;
45059;SDS011;30799;49.060;9.312;2022-12-07T04:26:59;2.70;;;2.50;;
45059;SDS011;30799;49.060;9.312;2022-12-07T04:29:26;2.60;;;2.28;;
45059;SDS011;30799;49.060;9.312;2022-12-07T04:31:53;3.03;;;2.30;;
45059;SDS011;30799;49.060;9.312;2022-12-07T04:34:20;2.30;;;2.10;;
45059;SDS011;30799;49.060;9.312;2022-12-07T04:36:47;2.10;;;1.88;;
45059;SDS011;30799;49.060;9.312;2022-12-07T04:39:18;2.60;;;2.40;;
45059;SDS011;30799;49.060;9.312;2022-12-07T04:41:53;3.10;;;2.67;;
45059;SDS011;30799;49.060;9.312;2022-12-07T04:44:20;2.65;;;2.00;;
45059;SDS011;30799;49.060;9.312;2022-12-07T04:46:47;2.95;;;2.50;;
45059;SDS011;30799;49.060;9.312;2022-12-07T04:49:14;2.55;;;2.35;;
45059;SDS011;30799;49.060;9.312;2022-12-07T04:51:42;2.40;;;2.20;;
45059;SDS011;30799;49.060;9.312;2022-12-07T04:54:09;2.50;;;2.30;;
45059;SDS011;30799;49.060;9.312;2022-12-07T04:56:36;3.17;;;2.17;;
45059;SDS011;30799;49.060;9.312;2022-12-07T04:59:04;2.38;;;2.13;;
45059;SDS011;30799;49.060;9.312;2022-12-07T05:01:31;2.20;;;2.00;;
45059;SDS011;30799;49.060;9.312;2022-12-07T05:03:58;2.80;;;2.53;;
45059;SDS011;30799;49.060;9.312;2022-12-07T05:06:25;2.20;;;2.00;;
45059;SDS011;30799;49.060;9.312;2022-12-07T05:08:52;2.45;;;2.25;;
45059;SDS011;30799;49.060;9.312;2022-12-07T05:11:19;2.40;;;2.20;;
45059;SDS011;30799;49.060;9.312;2022-12-07T05:14:05;2.25;;;2.00;;
45059;SDS011;30799;49.060;9.312;2022-12-07T05:16:32;2.20;;;2.00;;
45059;SDS011;30799;49.060;9.312;2022-12-07T05:18:59;2.45;;;2.25;;
45059;SDS011;30799;49.060;9.312;2022-12-07T05:21:26;2.10;;;1.90;;
45059;SDS011;30799;49.060;9.312;2022-12-07T05:23:52;2.25;;;2.05;;
45059;SDS011;30799;49.060;9.312;2022-12-07T05:26:19;2.53;;;2.33;;
45059;SDS011;30799;49.060;9.312;2022-12-07T05:28:49;2.20;;;2.00;;
45059;SDS011;30799;49.060;9.312;2022-12-07T05:31:19;3.25;;;2.47;;
45059;SDS011;30799;49.060;9.312;2022-12-07T05:33:46;2.20;;;2.00;;
45059;SDS011;30799;49.060;9.312;2022-12-07T05:36:13;1.70;;;1.60;;
45059;SDS011;30799;49.060;9.312;2022-12-07T05:38:40;2.80;;;2.15;;
45059;SDS011;30799;49.060;9.312;2022-12-07T05:41:07;2.30;;;2.10;;
45059;SDS011;30799;49.060;9.312;2022-12-07T05:43:55;2.53;;;2.22;;
45059;SDS011;30799;49.060;9.312;2022-12-07T05:48:48;2.75;;;2.50;;
45059;SDS011;30799;49.060;9.312;2022-12-07T05:51:15;2.92;;;2.63;;
45059;SDS011;30799;49.060;9.312;2022-12-07T05:53:42;6.95;;;6.25;;
45059;SDS011;30799;49.060;9.312;2022-12-07T05:56:08;9.27;;;7.70;;
45059;SDS011;30799;49.060;9.312;2022-12-07T05:58:35;7.78;;;7.03;;
45059;SDS011;30799;49.060;9.312;2022-12-07T06:01:20;6.93;;;6.20;;
45059;SDS011;30799;49.060;9.312;2022-12-07T06:03:47;11.38;;;6.85;;
45059;SDS011;30799;49.060;9.312;2022-12-07T06:38:18;4.32;;;3.40;;
45059;SDS011;30799;49.060;9.312;2022-12-07T06:40:45;4.00;;;3.50;;
45059;SDS011;30799;49.060;9.312;2022-12-07T06:43:12;6.55;;;3.15;;
45059;SDS011;30799;49.060;9.312;2022-12-07T06:45:38;8.23;;;3.13;;
45059;SDS011;30799;49.060;9.312;2022-12-07T06:48:06;5.07;;;3.17;;
45059;SDS011;30799;49.060;9.312;2022-12-07T06:50:33;3.83;;;3.00;;
45059;SDS011;30799;49.060;9.312;2022-12-07T06:53:00;5.47;;;2.70;;
45059;SDS011;30799;49.060;9.312;2022-12-07T06:55:26;3.70;;;3.05;;
45059;SDS011;30799;49.060;9.312;2022-12-07T06:57:53;3.75;;;2.75;;
45059;SDS011;30799;49.060;9.312;2022-12-07T07:00:19;3.50;;;3.13;;
45059;SDS011;30799;49.060;9.312;2022-12-07T07:02:47;4.75;;;3.17;;
45059;SDS011;30799;49.060;9.312;2022-12-07T07:05:14;3.60;;;3.28;;
45059;SDS011;30799;49.060;9.312;2022-12-07T07:07:42;3.05;;;2.63;;
45059;SDS011;30799;49.060;9.312;2022-12-07T07:10:29;4.65;;;3.33;;
45059;SDS011;30799;49.060;9.312;2022-12-07T07:12:55;3.38;;;3.00;;
45059;SDS011;30799;49.060;9.312;2022-12-07T07:15:23;4.38;;;2.88;;
45059;SDS011;30799;49.060;9.312;2022-12-07T07:17:50;3.10;;;2.78;;
45059;SDS011;30799;49.060;9.312;2022-12-07T07:20:16;4.53;;;2.95;;
45059;SDS011;30799;49.060;9.312;2022-12-07T07:22:43;2.92;;;2.40;;
45059;SDS011;30799;49.060;9.312;2022-12-07T07:25:10;4.38;;;3.10;;
45059;SDS011;30799;49.060;9.312;2022-12-07T07:27:37;3.88;;;2.85;;
45059;SDS011;30799;49.060;9.312;2022-12-07T07:30:03;3.75;;;2.85;;
45059;SDS011;30799;49.060;9.312;2022-12-07T07:32:30;3.03;;;2.67;;
45059;SDS011;30799;49.060;9.312;2022-12-07T07:34:57;3.38;;;3.03;;
45059;SDS011;30799;49.060;9.312;2022-12-07T07:37:24;3.25;;;2.67;;
45059;SDS011;30799;49.060;9.312;2022-12-07T07:39:50;2.75;;;2.42;;
45059;SDS011;30799;49.060;9.312;2022-12-07T07:42:17;3.55;;;2.63;;
45059;SDS011;30799;49.060;9.312;2022-12-07T07:44:43;3.10;;;2.80;;
45059;SDS011;30799;49.060;9.312;2022-12-07T07:47:10;5.05;;;3.10;;
45059;SDS011;30799;49.060;9.312;2022-12-07T07:49:37;3.08;;;2.78;;
45059;SDS011;30799;49.060;9.312;2022-12-07T07:52:11;3.35;;;3.05;;
45059;SDS011;30799;49.060;9.312;2022-12-07T07:54:38;3.60;;;2.65;;
45059;SDS011;30799;49.060;9.312;2022-12-07T07:57:04;3.55;;;2.88;;
45059;SDS011;30799;49.060;9.312;2022-12-07T07:59:31;5.10;;;2.63;;
45059;SDS011;30799;49.060;9.312;2022-12-07T08:01:58;3.63;;;2.92;;
45059;SDS011;30799;49.060;9.312;2022-12-07T08:04:24;4.15;;;2.47;;
45059;SDS011;30799;49.060;9.312;2022-12-07T08:06:52;2.70;;;2.50;;
45059;SDS011;30799;49.060;9.312;2022-12-07T08:09:18;3.63;;;2.80;;
45059;SDS011;30799;49.060;9.312;2022-12-07T08:11:45;2.97;;;2.67;;
45059;SDS011;30799;49.060;9.312;2022-12-07T08:14:11;4.43;;;3.10;;
45059;SDS011;30799;49.060;9.312;2022-12-07T08:16:38;3.25;;;2.50;;
45059;SDS011;30799;49.060;9.312;2022-12-07T08:19:05;3.80;;;2.88;;
45059;SDS011;30799;49.060;9.312;2022-12-07T08:21:32;2.67;;;2.30;;
45059;SDS011;30799;49.060;9.312;2022-12-07T08:23:59;2.92;;;2.50;;
45059;SDS011;30799;49.060;9.312;2022-12-07T08:26:26;2.55;;;2.33;;
45059;SDS011;30799;49.060;9.312;2022-12-07T08:28:52;2.63;;;2.42;;
45059;SDS011;30799;49.060;9.312;2022-12-07T08:31:19;2.78;;;2.55;;
45059;SDS011;30799;49.060;9.312;2022-12-07T08:33:46;2.95;;;2.72;;
45059;SDS011;30799;49.060;9.312;2022-12-07T08:36:13;2.70;;;2.50;;
45059;SDS011;30799;49.060;9.312;2022-12-07T08:38:41;3.88;;;2.45;;
45059;SDS011;30799;49.060;9.312;2022-12-07T08:41:28;2.75;;;2.55;;
45059;SDS011;30799;49.060;9.312;2022-12-07T08:43:54;3.72;;;2.85;;
45059;SDS011;30799;49.060;9.312;2022-12-07T08:46:22;3.25;;;2.40;;
45059;SDS011;30799;49.060;9.312;2022-12-07T08:49:13;2.92;;;2.63;;
45059;SDS011;30799;49.060;9.312;2022-12-07T08:51:39;3.22;;;2.80;;
45059;SDS011;30799;49.060;9.312;2022-12-07T08:54:07;2.60;;;2.40;;
45059;SDS011;30799;49.060;9.312;2022-12-07T08:56:37;2.88;;;2.50;;
45059;SDS011;30799;49.060;9.312;2022-12-07T08:59:04;2.55;;;2.35;;
45059;SDS011;30799;49.060;9.312;2022-12-07T09:01:32;3.03;;;2.40;;
45059;SDS011;30799;49.060;9.312;2022-12-07T09:03:59;3.22;;;2.67;;
45059;SDS011;30799;49.060;9.312;2022-12-07T09:06:25;2.80;;;2.60;;
45059;SDS011;30799;49.060;9.312;2022-12-07T09:08:54;2.53;;;2.25;;
45059;SDS011;30799;49.060;9.312;2022-12-07T09:11:24;2.47;;;2.20;;
45059;SDS011;30799;49.060;9.312;2022-12-07T09:13:54;2.97;;;2.47;;
45059;SDS011;30799;49.060;9.312;2022-12-07T09:16:21;2.80;;;2.50;;
45059;SDS011;30799;49.060;9.312;2022-12-07T09:18:48;2.90;;;2.53;;
45059;SDS011;30799;49.060;9.312;2022-12-07T09:21:14;2.80;;;2.60;;
45059;SDS011;30799;49.060;9.312;2022-12-07T09:23:41;2.70;;;2.50;;
45059;SDS011;30799;49.060;9.312;2022-12-07T09:26:09;2.70;;;2.50;;
45059;SDS011;30799;49.060;9.312;2022-12-07T09:28:36;3.00;;;2.50;;
45059;SDS011;30799;49.060;9.312;2022-12-07T09:31:04;2.65;;;2.45;;
45059;SDS011;30799;49.060;9.312;2022-12-07T09:33:58;2.97;;;2.58;;
45059;SDS011;30799;49.060;9.312;2022-12-07T09:36:26;2.72;;;2.53;;
45059;SDS011;30799;49.060;9.312;2022-12-07T09:38:53;2.05;;;1.85;;
45059;SDS011;30799;49.060;9.312;2022-12-07T09:41:21;2.80;;;2.13;;
45059;SDS011;30799;49.060;9.312;2022-12-07T09:43:49;2.45;;;2.25;;
45059;SDS011;30799;49.060;9.312;2022-12-07T09:46:17;2.88;;;2.45;;
45059;SDS011;30799;49.060;9.312;2022-12-07T09:48:46;2.42;;;2.22;;
45059;SDS011;30799;49.060;9.312;2022-12-07T09:51:21;2.40;;;2.20;;
45059;SDS011;30799;49.060;9.312;2022-12-07T09:53:52;2.50;;;2.30;;
45059;SDS011;30799;49.060;9.312;2022-12-07T09:56:21;2.65;;;2.30;;
45059;SDS011;30799;49.060;9.312;2022-12-07T09:58:48;2.45;;;2.25;;
45059;SDS011;30799;49.060;9.312;2022-12-07T10:01:21;2.72;;;2.20;;
45059;SDS011;30799;49.060;9.312;2022-12-07T10:03:52;2.33;;;2.10;;
45059;SDS011;30799;49.060;9.312;2022-12-07T10:06:21;2.20;;;2.00;;
45059;SDS011;30799;49.060;9.312;2022-12-07T10:08:48;2.25;;;1.92;;
45059;SDS011;30799;49.060;9.312;2022-12-07T10:11:14;2.20;;;2.00;;
45059;SDS011;30799;49.060;9.312;2022-12-07T10:13:43;2.25;;;2.05;;
45059;SDS011;30799;49.060;9.312;2022-12-07T10:19:19;2.63;;;2.08;;
45059;SDS011;30799;49.060;9.312;2022-12-07T10:21:59;2.40;;;2.20;;
45059;SDS011;30799;49.060;9.312;2022-12-07T10:24:26;2.45;;;2.25;;
45059;SDS011;30799;49.060;9.312;2022-12-07T10:26:53;2.38;;;2.17;;
45059;SDS011;30799;49.060;9.312;2022-12-07T10:31:53;2.45;;;2.25;;
45059;SDS011;30799;49.060;9.312;2022-12-07T10:34:23;2.70;;;2.50;;
45059;SDS011;30799;49.060;9.312;2022-12-07T10:42:16;3.22;;;2.33;;
45059;SDS011;30799;49.060;9.312;2022-12-07T10:45:06;2.70;;;2.03;;
45059;SDS011;30799;49.060;9.312;2022-12-07T10:47:52;2.05;;;1.88;;
45059;SDS011;30799;49.060;9.312;2022-12-07T10:50:39;2.20;;;2.00;;
45059;SDS011;30799;49.060;9.312;2022-12-07T10:53:38;2.63;;;2.40;;
45059;SDS011;30799;49.060;9.312;2022-12-07T11:01:58;2.40;;;2.20;;
45059;SDS011;30799;49.060;9.312;2022-12-07T11:10:13;2.40;;;2.20;;
45059;SDS011;30799;49.060;9.312;2022-12-07T11:15:44;2.20;;;2.00;;
45059;SDS011;30799;49.060;9.312;2022-12-07T11:18:34;2.28;;;2.08;;
45059;SDS011;30799;49.060;9.312;2022-12-07T11:24:03;2.30;;;2.10;;
45059;SDS011;30799;49.060;9.312;2022-12-07T11:27:03;2.30;;;2.10;;
45059;SDS011;30799;49.060;9.312;2022-12-07T11:29:50;2.30;;;2.10;;
45059;SDS011;30799;49.060;9.312;2022-12-07T11:32:33;2.15;;;1.98;;
45059;SDS011;30799;49.060;9.312;2022-12-07T11:38:21;2.22;;;2.00;;
45059;SDS011;30799;49.060;9.312;2022-12-07T11:40:56;2.38;;;2.17;;
45059;SDS011;30799;49.060;9.312;2022-12-07T11:44:23;3.25;;;2.25;;
45059;SDS011;30799;49.060;9.312;2022-12-07T11:46:39;1.98;;;1.85;;
45059;SDS011;30799;49.060;9.312;2022-12-07T11:49:15;2.07;;;1.97;;
45059;SDS011;30799;49.060;9.312;2022-12-07T11:54:19;2.47;;;2.10;;
45059;SDS011;30799;49.060;9.312;2022-12-07T11:56:52;2.08;;;1.90;;
45059;SDS011;30799;49.060;9.312;2022-12-07T11:59:38;1.92;;;1.83;;
45059;SDS011;30799;49.060;9.312;2022-12-07T12:02:19;2.13;;;1.92;;
45059;SDS011;30799;49.060;9.312;2022-12-07T12:07:33;2.25;;;1.80;;
45059;SDS011;30799;49.060;9.312;2022-12-07T12:16:08;2.08;;;1.92;;
45059;SDS011;30799;49.060;9.312;2022-12-07T12:18:45;1.85;;;1.70;;
45059;SDS011;30799;49.060;9.312;2022-12-07T12:21:34;2.03;;;1.92;;
45059;SDS011;30799;49.060;9.312;2022-12-07T12:24:03;2.20;;;2.00;;
45059;SDS011;30799;49.060;9.312;2022-12-07T12:26:40;1.92;;;1.83;;
45059;SDS011;30799;49.060;9.312;2022-12-07T12:29:21;2.13;;;2.00;;
45059;SDS011;30799;49.060;9.312;2022-12-07T12:32:17;2.20;;;2.00;;
45059;SDS011;30799;49.060;9.312;2022-12-07T12:42:52;2.22;;;2.08;;
45059;SDS011;30799;49.060;9.312;2022-12-07T12:45:28;2.22;;;2.03;;
45059;SDS011;30799;49.060;9.312;2022-12-07T12:50:35;1.80;;;1.70;;
45059;SDS011;30799;49.060;9.312;2022-12-07T13:00:44;2.08;;;1.98;;
45059;SDS011;30799;49.060;9.312;2022-12-07T13:03:22;2.10;;;1.77;;
45059;SDS011;30799;49.060;9.312;2022-12-07T13:08:51;2.22;;;2.10;;
45059;SDS011;30799;49.060;9.312;2022-12-07T13:11:31;1.85;;;1.75;;
45059;SDS011;30799;49.060;9.312;2022-12-07T13:17:10;2.22;;;1.90;;
45059;SDS011;30799;49.060;9.312;2022-12-07T13:20:01;1.80;;;1.70;;
45059;SDS011;30799;49.060;9.312;2022-12-07T13:24:57;1.95;;;1.85;;
45059;SDS011;30799;49.060;9.312;2022-12-07T13:27:57;1.83;;;1.73;;
45059;SDS011;30799;49.060;9.312;2022-12-07T13:30:28;2.00;;;1.80;;
45059;SDS011;30799;49.060;9.312;2022-12-07T13:32:57;1.80;;;1.70;;
45059;SDS011;30799;49.060;9.312;2022-12-07T13:37:55;1.90;;;1.80;;
45059;SDS011;30799;49.060;9.312;2022-12-07T13:40:22;1.60;;;1.50;;
45059;SDS011;30799;49.060;9.312;2022-12-07T13:43:00;2.30;;;2.10;;
45059;SDS011;30799;49.060;9.312;2022-12-07T13:48:18;1.98;;;1.77;;
45059;SDS011;30799;49.060;9.312;2022-12-07T13:51:02;1.88;;;1.77;;
45059;SDS011;30799;49.060;9.312;2022-12-07T13:53:30;1.70;;;1.60;;
45059;SDS011;30799;49.060;9.312;2022-12-07T13:56:00;2.00;;;1.90;;
45059;SDS011;30799;49.060;9.312;2022-12-07T13:58:29;1.75;;;1.65;;
45059;SDS011;30799;49.060;9.312;2022-12-07T14:00:57;1.67;;;1.58;;
45059;SDS011;30799;49.060;9.312;2022-12-07T14:03:27;2.08;;;1.80;;
45059;SDS011;30799;49.060;9.312;2022-12-07T14:06:06;1.52;;;1.42;;
45059;SDS011;30799;49.060;9.312;2022-12-07T14:08:39;1.83;;;1.73;;
45059;SDS011;30799;49.060;9.312;2022-12-07T14:11:06;2.08;;;1.92;;
45059;SDS011;30799;49.060;9.312;2022-12-07T14:13:42;1.85;;;1.75;;
45059;SDS011;30799;49.060;9.312;2022-12-07T14:16:34;1.98;;;1.88;;
45059;SDS011;30799;49.060;9.312;2022-12-07T14:19:03;1.83;;;1.73;;
45059;SDS011;30799;49.060;9.312;2022-12-07T14:21:32;1.88;;;1.77;;
45059;SDS011;30799;49.060;9.312;2022-12-07T14:24:07;2.00;;;1.90;;
45059;SDS011;30799;49.060;9.312;2022-12-07T14:26:37;2.17;;;2.00;;
45059;SDS011;30799;49.060;9.312;2022-12-07T14:32:26;1.95;;;1.77;;
45059;SDS011;30799;49.060;9.312;2022-12-07T14:35:01;1.85;;;1.75;;
45059;SDS011;30799;49.060;9.312;2022-12-07T14:37:34;2.05;;;1.95;;
45059;SDS011;30799;49.060;9.312;2022-12-07T14:40:00;1.88;;;1.77;;
45059;SDS011;30799;49.060;9.312;2022-12-07T14:42:28;1.73;;;1.60;;
45059;SDS011;30799;49.060;9.312;2022-12-07T14:44:57;1.88;;;1.63;;
45059;SDS011;30799;49.060;9.312;2022-12-07T14:47:24;1.88;;;1.77;;
45059;SDS011;30799;49.060;9.312;2022-12-07T14:50:13;2.00;;;1.90;;
45059;SDS011;30799;49.060;9.312;2022-12-07T14:52:45;2.30;;;2.10;;
45059;SDS011;30799;49.060;9.312;2022-12-07T14:55:35;2.17;;;1.97;;
45059;SDS011;30799;49.060;9.312;2022-12-07T14:58:02;1.90;;;1.80;;
45059;SDS011;30799;49.060;9.312;2022-12-07T15:00:29;1.75;;;1.50;;
45059;SDS011;30799;49.060;9.312;2022-12-07T15:02:56;1.73;;;1.63;;
45059;SDS011;30799;49.060;9.312;2022-12-07T15:05:23;1.75;;;1.65;;
45059;SDS011;30799;49.060;9.312;2022-12-07T15:07:50;1.80;;;1.70;;
45059;SDS011;30799;49.060;9.312;2022-12-07T15:10:19;2.40;;;1.90;;
45059;SDS011;30799;49.060;9.312;2022-12-07T15:12:50;1.90;;;1.80;;
45059;SDS011;30799;49.060;9.312;2022-12-07T15:15:17;2.28;;;1.63;;
45059;SDS011;30799;49.060;9.312;2022-12-07T15:17:43;2.78;;;2.17;;
45059;SDS011;30799;49.060;9.312;2022-12-07T15:20:11;1.92;;;1.65;;
45059;SDS011;30799;49.060;9.312;2022-12-07T15:22:40;1.70;;;1.60;;
45059;SDS011;30799;49.060;9.312;2022-12-07T15:25:07;1.80;;;1.70;;
45059;SDS011;30799;49.060;9.312;2022-12-07T15:27:35;1.70;;;1.60;;
45059;SDS011;30799;49.060;9.312;2022-12-07T15:30:02;1.73;;;1.63;;
45059;SDS011;30799;49.060;9.312;2022-12-07T15:32:29;2.17;;;1.88;;
45059;SDS011;30799;49.060;9.312;2022-12-07T15:34:56;1.85;;;1.75;;
45059;SDS011;30799;49.060;9.312;2022-12-07T15:37:22;2.20;;;1.90;;
45059;SDS011;30799;49.060;9.312;2022-12-07T15:39:49;2.00;;;1.80;;
45059;SDS011;30799;49.060;9.312;2022-12-07T15:42:16;1.60;;;1.50;;
45059;SDS011;30799;49.060;9.312;2022-12-07T15:44:42;1.70;;;1.60;;
45059;SDS011;30799;49.060;9.312;2022-12-07T15:47:28;1.80;;;1.70;;
45059;SDS011;30799;49.060;9.312;2022-12-07T15:49:55;2.15;;;1.92;;
45059;SDS011;30799;49.060;9.312;2022-12-07T15:52:21;1.80;;;1.70;;
45059;SDS011;30799;49.060;9.312;2022-12-07T15:54:48;1.80;;;1.70;;
45059;SDS011;30799;49.060;9.312;2022-12-07T15:57:15;1.80;;;1.70;;
45059;SDS011;30799;49.060;9.312;2022-12-07T15:59:48;1.50;;;1.40;;
45059;SDS011;30799;49.060;9.312;2022-12-07T16:02:15;1.98;;;1.77;;
45059;SDS011;30799;49.060;9.312;2022-12-07T16:04:42;1.58;;;1.48;;
45059;SDS011;30799;49.060;9.312;2022-12-07T16:07:08;1.73;;;1.63;;
45059;SDS011;30799;49.060;9.312;2022-12-07T16:09:37;1.83;;;1.73;;
45059;SDS011;30799;49.060;9.312;2022-12-07T16:12:04;2.33;;;1.80;;
45059;SDS011;30799;49.060;9.312;2022-12-07T16:14:31;2.00;;;1.80;;
45059;SDS011;30799;49.060;9.312;2022-12-07T16:16:59;1.88;;;1.65;;
45059;SDS011;30799;49.060;9.312;2022-12-07T16:19:26;1.88;;;1.67;;
45059;SDS011;30799;49.060;9.312;2022-12-07T16:21:52;1.42;;;1.33;;
45059;SDS011;30799;49.060;9.312;2022-12-07T16:24:19;1.88;;;1.77;;
45059;SDS011;30799;49.060;9.312;2022-12-07T16:26:45;1.85;;;1.52;;
45059;SDS011;30799;49.060;9.312;2022-12-07T16:29:16;1.92;;;1.80;;
45059;SDS011;30799;49.060;9.312;2022-12-07T16:31:44;1.77;;;1.67;;
45059;SDS011;30799;49.060;9.312;2022-12-07T16:34:11;1.80;;;1.70;;
45059;SDS011;30799;49.060;9.312;2022-12-07T16:36:38;1.52;;;1.42;;
45059;SDS011;30799;49.060;9.312;2022-12-07T16:39:24;1.67;;;1.58;;
45059;SDS011;30799;49.060;9.312;2022-12-07T16:41:51;1.65;;;1.55;;
45059;SDS011;30799;49.060;9.312;2022-12-07T16:44:18;1.77;;;1.67;;
45059;SDS011;30799;49.060;9.312;2022-12-07T16:46:45;1.42;;;1.33;;
45059;SDS011;30799;49.060;9.312;2022-12-07T16:49:13;1.63;;;1.52;;
45059;SDS011;30799;49.060;9.312;2022-12-07T16:51:40;1.65;;;1.55;;
45059;SDS011;30799;49.060;9.312;2022-12-07T16:54:09;1.90;;;1.80;;
45059;SDS011;30799;49.060;9.312;2022-12-07T16:56:37;1.88;;;1.77;;
45059;SDS011;30799;49.060;9.312;2022-12-07T16:59:04;1.77;;;1.67;;
45059;SDS011;30799;49.060;9.312;2022-12-07T17:01:31;1.80;;;1.70;;
45059;SDS011;30799;49.060;9.312;2022-12-07T17:03:58;2.13;;;1.92;;
45059;SDS011;30799;49.060;9.312;2022-12-07T17:06:25;1.63;;;1.52;;
45059;SDS011;30799;49.060;9.312;2022-12-07T17:08:53;1.60;;;1.50;;
45059;SDS011;30799;49.060;9.312;2022-12-07T17:11:22;2.05;;;1.85;;
45059;SDS011;30799;49.060;9.312;2022-12-07T17:13:51;1.80;;;1.70;;
45059;SDS011;30799;49.060;9.312;2022-12-07T17:16:37;1.80;;;1.70;;
45059;SDS011;30799;49.060;9.312;2022-12-07T17:19:04;1.70;;;1.60;;
45059;SDS011;30799;49.060;9.312;2022-12-07T17:21:32;1.90;;;1.80;;
45059;SDS011;30799;49.060;9.312;2022-12-07T17:23:59;1.67;;;1.58;;
45059;SDS011;30799;49.060;9.312;2022-12-07T17:26:27;1.90;;;1.80;;
45059;SDS011;30799;49.060;9.312;2022-12-07T17:29:01;1.88;;;1.77;;
45059;SDS011;30799;49.060;9.312;2022-12-07T17:31:29;2.13;;;1.92;;
45059;SDS011;30799;49.060;9.312;2022-12-07T17:33:55;1.70;;;1.60;;